Garissa Airport


Codes: HKGA/GAS
Name: Garissa Airport
City: Garissa
Country: Kenya
Elevation: 475 ft.

Photos at Garissa Airport


   Photos courtesy of SpottingLog. You can add your own sightings and photos by signing up for a free trial today.



No photos found.

Weather at Garissa Airport


Time (UTC)DescriptionTempratureWindCloud coverageVisibilityPressureHumidity
26-Jun-2024 00:00Scattered Clouds24°C22 mph, S28%10000m1012hPa62%
26-Jun-2024 03:00Scattered Clouds24°C20 mph, S27%10000m1012hPa64%
26-Jun-2024 06:00Scattered Clouds26°C25 mph, S26%10000m1015hPa53%
26-Jun-2024 09:00Overcast Clouds32°C27 mph, S91%10000m1014hPa33%
26-Jun-2024 12:00Broken Clouds34°C25 mph, S79%10000m1010hPa30%
26-Jun-2024 15:00Scattered Clouds31°C27 mph, S44%10000m1010hPa42%
26-Jun-2024 18:00Scattered Clouds27°C22 mph, S41%10000m1014hPa61%
26-Jun-2024 21:00Overcast Clouds25°C20 mph, S97%10000m1015hPa61%
27-Jun-2024 00:00Broken Clouds24°C22 mph, S78%10000m1013hPa65%
27-Jun-2024 03:00Few Clouds24°C20 mph, S20%10000m1015hPa69%
27-Jun-2024 06:00Few Clouds27°C25 mph, S17%10000m1016hPa54%
27-Jun-2024 09:00Scattered Clouds32°C25 mph, S29%10000m1014hPa38%
27-Jun-2024 12:00Broken Clouds32°C25 mph, S60%10000m1012hPa37%
27-Jun-2024 15:00Overcast Clouds30°C22 mph, SE97%10000m1013hPa42%
27-Jun-2024 18:00Overcast Clouds26°C20 mph, SE88%10000m1016hPa58%
27-Jun-2024 21:00Overcast Clouds25°C18 mph, S93%10000m1016hPa65%
28-Jun-2024 00:00Broken Clouds24°C16 mph, S73%10000m1015hPa71%
28-Jun-2024 03:00Few Clouds23°C13 mph, S16%10000m1016hPa75%
28-Jun-2024 06:00Scattered Clouds27°C20 mph, S28%10000m1018hPa58%
28-Jun-2024 09:00Scattered Clouds32°C22 mph, S25%10000m1015hPa39%
28-Jun-2024 12:00Broken Clouds32°C22 mph, S51%10000m1012hPa36%
28-Jun-2024 15:00Broken Clouds31°C20 mph, S54%10000m1012hPa36%
28-Jun-2024 18:00Scattered Clouds26°C20 mph, SE43%10000m1014hPa58%
28-Jun-2024 21:00Scattered Clouds24°C18 mph, S34%10000m1015hPa66%
29-Jun-2024 00:00Scattered Clouds23°C16 mph, S32%10000m1014hPa73%
29-Jun-2024 03:00Broken Clouds23°C13 mph, S67%10000m1015hPa79%
29-Jun-2024 06:00Broken Clouds27°C22 mph, S67%10000m1016hPa59%
29-Jun-2024 09:00Broken Clouds32°C25 mph, S76%10000m1014hPa36%
29-Jun-2024 12:00Overcast Clouds34°C22 mph, S86%10000m1011hPa32%
29-Jun-2024 15:00Broken Clouds30°C25 mph, SE81%10000m1012hPa43%
29-Jun-2024 18:00Overcast Clouds26°C20 mph, SE85%10000m1015hPa62%
29-Jun-2024 21:00Overcast Clouds24°C20 mph, SE100%10000m1015hPa72%
30-Jun-2024 00:00Overcast Clouds23°C16 mph, S100%10000m1014hPa76%
30-Jun-2024 03:00Overcast Clouds23°C16 mph, S99%10000m1015hPa80%
30-Jun-2024 06:00Overcast Clouds26°C22 mph, S99%10000m1016hPa60%
30-Jun-2024 09:00Broken Clouds32°C22 mph, S70%10000m1015hPa37%
30-Jun-2024 12:00Broken Clouds34°C20 mph, S81%10000m1011hPa30%
30-Jun-2024 15:00Overcast Clouds31°C25 mph, SE95%10000m1011hPa37%
30-Jun-2024 18:00Overcast Clouds26°C22 mph, SE86%10000m1014hPa62%
30-Jun-2024 21:00Overcast Clouds24°C20 mph, S100%10000m1015hPa73%